createdAt,value
2022-12-22T00:02:23.063Z,7.10
2022-12-22T00:04:49.334Z,7.08
2022-12-22T00:07:15.630Z,7.05
2022-12-22T00:09:41.996Z,7.04
2022-12-22T00:12:08.433Z,7.03
2022-12-22T00:14:34.803Z,7.01
2022-12-22T00:17:01.245Z,7.01
2022-12-22T00:19:27.498Z,7.00
2022-12-22T00:21:53.894Z,6.98
2022-12-22T00:24:20.204Z,6.97
2022-12-22T00:26:46.554Z,6.93
2022-12-22T00:29:12.913Z,6.93
2022-12-22T00:31:39.253Z,6.92
2022-12-22T00:34:05.590Z,6.92
2022-12-22T00:36:31.953Z,6.89
2022-12-22T00:38:58.348Z,6.90
2022-12-22T00:41:24.710Z,6.87
2022-12-22T00:43:51.038Z,6.86
2022-12-22T00:46:17.449Z,6.84
2022-12-22T00:48:44.099Z,6.84
2022-12-22T00:51:10.443Z,6.82
2022-12-22T00:53:36.803Z,6.80
2022-12-22T00:56:03.187Z,6.78
2022-12-22T00:58:29.507Z,6.78
2022-12-22T01:00:55.886Z,6.77
2022-12-22T01:03:22.309Z,6.76
2022-12-22T01:05:48.595Z,6.74
2022-12-22T01:08:14.956Z,6.74
2022-12-22T01:10:41.336Z,6.72
2022-12-22T01:13:07.650Z,6.71
2022-12-22T01:15:34.083Z,6.69
2022-12-22T01:18:00.437Z,6.68
2022-12-22T01:20:26.837Z,6.67
2022-12-22T01:22:53.197Z,6.65
2022-12-22T01:25:19.544Z,6.64
2022-12-22T01:27:45.865Z,6.64
2022-12-22T01:30:12.227Z,6.61
2022-12-22T01:32:38.579Z,6.60
2022-12-22T01:35:04.978Z,6.60
2022-12-22T01:37:31.364Z,6.58
2022-12-22T01:39:57.700Z,6.55
2022-12-22T01:42:24.237Z,6.54
2022-12-22T01:44:50.580Z,6.51
2022-12-22T01:47:16.959Z,6.48
2022-12-22T01:49:43.361Z,6.48
2022-12-22T01:52:09.600Z,6.47
2022-12-22T01:54:35.971Z,6.48
2022-12-22T01:57:02.288Z,6.45
2022-12-22T01:59:28.670Z,6.43
2022-12-22T02:01:55.074Z,6.42
2022-12-22T02:04:21.351Z,6.41
2022-12-22T02:06:47.666Z,6.41
2022-12-22T02:09:14.028Z,6.37
2022-12-22T02:11:40.465Z,6.37
2022-12-22T02:14:06.846Z,6.36
2022-12-22T02:16:33.216Z,6.34
2022-12-22T02:18:59.661Z,6.31
2022-12-22T02:21:25.949Z,6.30
2022-12-22T02:23:52.358Z,6.29
2022-12-22T02:26:19.015Z,6.27
2022-12-22T02:28:45.506Z,6.27
2022-12-22T02:31:11.925Z,6.24
2022-12-22T02:33:38.241Z,6.22
2022-12-22T02:36:04.592Z,6.22
2022-12-22T02:38:30.970Z,6.20
2022-12-22T02:40:57.320Z,6.19
2022-12-22T02:43:23.692Z,6.19
2022-12-22T02:45:50.006Z,6.17
2022-12-22T02:48:16.389Z,6.16
2022-12-22T02:50:42.797Z,6.15
2022-12-22T02:53:09.175Z,6.13
2022-12-22T02:55:35.570Z,6.13
2022-12-22T02:58:01.949Z,6.12
2022-12-22T03:00:28.409Z,6.10
2022-12-22T03:02:54.919Z,6.10
2022-12-22T03:05:21.122Z,6.10
2022-12-22T03:07:47.459Z,6.07
2022-12-22T03:10:13.817Z,6.08
2022-12-22T03:12:40.211Z,6.07
2022-12-22T03:15:06.624Z,6.06
2022-12-22T03:17:33.008Z,6.03
2022-12-22T03:19:59.352Z,6.03
2022-12-22T03:22:25.686Z,6.04
2022-12-22T03:24:52.001Z,6.03
2022-12-22T03:27:18.340Z,5.99
2022-12-22T03:29:44.657Z,5.98
2022-12-22T03:32:11.036Z,5.96
2022-12-22T03:34:37.363Z,5.97
2022-12-22T03:37:03.748Z,5.96
2022-12-22T03:39:30.058Z,5.94
2022-12-22T03:41:56.438Z,5.94
2022-12-22T03:44:22.761Z,5.92
2022-12-22T03:46:49.227Z,5.91
2022-12-22T03:49:15.427Z,5.89
2022-12-22T03:51:41.798Z,5.87
2022-12-22T03:54:08.142Z,5.85
2022-12-22T03:56:34.515Z,5.83
2022-12-22T03:59:00.879Z,5.84
2022-12-22T04:01:27.359Z,5.82
2022-12-22T04:03:53.553Z,5.79
2022-12-22T04:06:19.904Z,5.77
2022-12-22T04:08:46.261Z,5.77
2022-12-22T04:11:12.602Z,5.76
2022-12-22T04:13:38.946Z,5.75
2022-12-22T04:16:05.343Z,5.73
2022-12-22T04:18:31.635Z,5.71
2022-12-22T04:20:58.019Z,5.70
2022-12-22T04:23:24.366Z,5.70
2022-12-22T04:25:50.709Z,5.70
2022-12-22T04:28:17.068Z,5.69
2022-12-22T04:30:43.364Z,5.67
2022-12-22T04:33:09.721Z,5.66
2022-12-22T04:35:36.132Z,5.63
2022-12-22T04:38:02.450Z,5.64
2022-12-22T04:40:28.811Z,5.64
2022-12-22T04:42:55.141Z,5.63
2022-12-22T04:45:21.515Z,5.64
2022-12-22T04:47:47.951Z,5.62
2022-12-22T04:50:14.325Z,5.61
2022-12-22T04:52:40.715Z,5.58
2022-12-22T04:55:07.048Z,5.57
2022-12-22T04:57:40.048Z,5.56
2022-12-22T04:59:59.719Z,5.54
2022-12-22T05:02:26.186Z,5.53
2022-12-22T05:04:52.375Z,5.52
2022-12-22T05:07:18.774Z,5.50
2022-12-22T05:09:45.141Z,5.50
2022-12-22T05:12:11.483Z,5.48
2022-12-22T05:14:37.818Z,5.48
2022-12-22T05:17:04.206Z,5.47
2022-12-22T05:19:31.046Z,5.47
2022-12-22T05:21:56.904Z,5.46
2022-12-22T05:24:23.250Z,5.44
2022-12-22T05:26:49.631Z,5.43
2022-12-22T05:29:15.979Z,5.43
2022-12-22T05:31:47.108Z,5.42
2022-12-22T05:34:08.681Z,5.42
2022-12-22T05:36:35.104Z,5.41
2022-12-22T05:39:01.413Z,5.40
2022-12-22T05:41:27.751Z,5.40
2022-12-22T05:43:54.151Z,5.40
2022-12-22T05:46:20.594Z,5.39
2022-12-22T05:48:46.867Z,5.41
2022-12-22T05:51:13.211Z,5.43
2022-12-22T05:53:39.589Z,5.43
2022-12-22T05:56:05.943Z,5.44
2022-12-22T05:58:32.299Z,5.46
2022-12-22T06:00:58.670Z,5.48
2022-12-22T06:03:25.174Z,5.51
2022-12-22T06:05:51.389Z,5.58
2022-12-22T06:08:17.733Z,5.69
2022-12-22T06:10:44.085Z,5.83
2022-12-22T06:13:10.441Z,5.99
2022-12-22T06:15:36.842Z,6.19
2022-12-22T06:18:03.179Z,6.41
2022-12-22T06:20:29.523Z,6.62
2022-12-22T06:22:55.910Z,6.84
2022-12-22T06:25:22.285Z,7.05
2022-12-22T06:27:48.586Z,7.28
2022-12-22T06:30:14.928Z,7.52
2022-12-22T06:32:41.320Z,7.74
2022-12-22T06:35:07.784Z,7.99
2022-12-22T06:37:34.067Z,8.23
2022-12-22T06:40:00.421Z,8.47
2022-12-22T06:42:26.786Z,8.74
2022-12-22T06:44:53.173Z,9.00
2022-12-22T06:47:19.482Z,9.29
2022-12-22T06:49:45.841Z,9.59
2022-12-22T06:52:12.204Z,9.90
2022-12-22T06:54:38.579Z,10.22
2022-12-22T06:57:04.942Z,10.52
2022-12-22T06:59:31.430Z,10.80
2022-12-22T07:01:57.963Z,11.07
2022-12-22T07:04:24.143Z,11.35
2022-12-22T07:06:50.465Z,11.63
2022-12-22T07:09:16.827Z,11.92
2022-12-22T07:11:43.173Z,12.20
2022-12-22T07:14:09.635Z,12.48
2022-12-22T07:16:36.052Z,12.80
2022-12-22T07:19:02.361Z,13.08
2022-12-22T07:21:28.672Z,13.30
2022-12-22T07:23:55.054Z,13.54
2022-12-22T07:26:21.369Z,13.76
2022-12-22T07:28:47.753Z,13.94
2022-12-22T07:31:14.144Z,14.07
2022-12-22T07:33:40.443Z,14.11
2022-12-22T07:36:06.779Z,14.22
2022-12-22T07:38:35.568Z,14.16
2022-12-22T07:41:04.511Z,13.97
2022-12-22T07:43:25.783Z,13.69
2022-12-22T07:45:52.141Z,13.49
2022-12-22T07:48:18.506Z,13.37
2022-12-22T07:50:44.833Z,13.36
2022-12-22T07:53:11.158Z,13.39
2022-12-22T07:55:37.518Z,13.46
2022-12-22T07:58:03.824Z,13.54
2022-12-22T08:00:30.321Z,13.61
2022-12-22T08:02:56.926Z,13.72
2022-12-22T08:05:23.168Z,14.13
2022-12-22T08:07:49.503Z,14.36
2022-12-22T08:10:15.825Z,14.35
2022-12-22T08:12:42.235Z,13.81
2022-12-22T08:15:08.524Z,13.39
2022-12-22T08:17:34.917Z,13.14
2022-12-22T08:20:01.276Z,12.99
2022-12-22T08:22:27.613Z,12.89
2022-12-22T08:24:53.955Z,12.96
2022-12-22T08:27:25.970Z,13.05
2022-12-22T08:29:46.653Z,13.15
2022-12-22T08:32:13.072Z,13.24
2022-12-22T08:34:39.413Z,13.33
2022-12-22T08:37:05.815Z,13.44
2022-12-22T08:39:32.158Z,13.64
2022-12-22T08:41:58.499Z,13.72
2022-12-22T08:44:24.860Z,13.78
2022-12-22T08:46:51.313Z,13.91
2022-12-22T08:49:17.605Z,14.02
2022-12-22T08:51:43.944Z,14.26
2022-12-22T08:54:10.270Z,14.56
2022-12-22T08:56:36.675Z,14.71
2022-12-22T08:59:03.030Z,14.89
2022-12-22T09:01:29.507Z,14.94
2022-12-22T09:03:55.721Z,15.01
2022-12-22T09:06:26.967Z,15.00
2022-12-22T09:08:48.379Z,14.99
2022-12-22T09:11:14.763Z,15.11
2022-12-22T09:13:41.138Z,15.25
2022-12-22T09:16:07.554Z,15.22
2022-12-22T09:18:33.865Z,15.26
2022-12-22T09:21:00.203Z,15.30
2022-12-22T09:23:26.562Z,15.41
2022-12-22T09:25:52.932Z,15.47
2022-12-22T09:28:19.253Z,15.38
2022-12-22T09:30:45.595Z,15.36
2022-12-22T09:33:11.944Z,15.52
2022-12-22T09:35:38.266Z,15.62
2022-12-22T09:38:04.628Z,15.70
2022-12-22T09:40:31.010Z,15.88
2022-12-22T09:42:57.326Z,16.01
2022-12-22T09:45:23.707Z,16.10
2022-12-22T09:47:50.039Z,16.33
2022-12-22T09:50:16.365Z,16.50
2022-12-22T09:52:42.787Z,16.38
2022-12-22T09:55:09.136Z,16.31
2022-12-22T09:57:35.493Z,16.37
2022-12-22T10:00:01.872Z,16.51
2022-12-22T10:02:28.275Z,16.80
2022-12-22T10:04:54.617Z,16.94
2022-12-22T10:07:20.965Z,16.90
2022-12-22T10:09:50.753Z,17.08
2022-12-22T10:12:13.692Z,17.24
2022-12-22T10:14:40.088Z,17.38
2022-12-22T10:17:06.467Z,17.43
2022-12-22T10:19:32.742Z,17.63
2022-12-22T10:21:59.108Z,17.80
2022-12-22T10:24:25.444Z,17.96
2022-12-22T10:26:51.810Z,18.17
2022-12-22T10:29:18.162Z,18.12
2022-12-22T10:31:44.551Z,18.07
2022-12-22T10:34:10.872Z,17.98
2022-12-22T10:36:37.226Z,18.01
2022-12-22T10:39:03.570Z,18.01
2022-12-22T10:41:29.883Z,18.06
2022-12-22T10:43:56.313Z,18.21
2022-12-22T10:46:22.677Z,18.30
2022-12-22T10:48:48.977Z,18.18
2022-12-22T10:51:15.356Z,18.09
2022-12-22T10:53:41.676Z,18.10
2022-12-22T10:56:08.004Z,18.28
2022-12-22T10:58:34.359Z,18.46
2022-12-22T11:01:00.785Z,18.55
2022-12-22T11:03:27.127Z,18.32
2022-12-22T11:05:53.393Z,18.16
2022-12-22T11:08:19.776Z,18.16
2022-12-22T11:10:46.136Z,18.10
2022-12-22T11:13:12.516Z,18.11
2022-12-22T11:15:38.884Z,18.22
2022-12-22T11:18:05.233Z,18.38
2022-12-22T11:20:31.604Z,18.56
2022-12-22T11:22:57.966Z,18.63
2022-12-22T11:25:24.331Z,18.41
2022-12-22T11:27:50.741Z,18.25
2022-12-22T11:30:17.037Z,18.32
2022-12-22T11:32:43.382Z,18.35
2022-12-22T11:35:09.749Z,18.39
2022-12-22T11:37:36.137Z,18.39
2022-12-22T11:40:02.514Z,18.12
2022-12-22T11:42:28.834Z,18.12
2022-12-22T11:44:55.149Z,18.23
2022-12-22T11:47:21.591Z,18.33
2022-12-22T11:49:47.902Z,18.44
2022-12-22T11:52:14.259Z,18.61
2022-12-22T11:54:40.647Z,18.72
2022-12-22T11:57:06.990Z,18.80
2022-12-22T11:59:33.367Z,18.81
2022-12-22T12:01:59.804Z,18.83
2022-12-22T12:04:26.143Z,18.84
2022-12-22T12:06:52.459Z,18.78
2022-12-22T12:09:18.792Z,18.75
2022-12-22T12:11:45.179Z,18.70
2022-12-22T12:14:11.554Z,18.63
2022-12-22T12:16:38.005Z,18.54
2022-12-22T12:19:04.307Z,18.56
2022-12-22T12:21:30.732Z,18.60
2022-12-22T12:23:57.019Z,18.55
2022-12-22T12:26:23.451Z,18.49
2022-12-22T12:28:49.806Z,18.43
2022-12-22T12:31:19.040Z,18.50
2022-12-22T12:33:42.513Z,18.56
2022-12-22T12:36:08.897Z,18.58
2022-12-22T12:41:01.598Z,18.68
2022-12-22T12:43:27.950Z,18.70
2022-12-22T12:45:54.353Z,18.70
2022-12-22T12:48:20.679Z,18.54
2022-12-22T12:50:47.027Z,18.46
2022-12-22T12:53:13.376Z,18.34
2022-12-22T12:55:39.742Z,18.22
2022-12-22T12:58:06.133Z,18.08
2022-12-22T13:00:32.512Z,17.94
2022-12-22T13:02:58.909Z,17.81
2022-12-22T13:05:25.195Z,17.64
2022-12-22T13:07:51.549Z,17.48
2022-12-22T13:10:17.981Z,17.35
2022-12-22T13:12:44.328Z,17.28
2022-12-22T13:15:10.676Z,17.17
2022-12-22T13:17:37.095Z,17.07
2022-12-22T13:20:03.420Z,16.99
2022-12-22T13:22:29.774Z,16.88
2022-12-22T13:24:56.158Z,16.77
2022-12-22T13:27:22.502Z,16.67
2022-12-22T13:29:48.880Z,16.50
2022-12-22T13:32:15.226Z,16.25
2022-12-22T13:35:04.322Z,16.08
2022-12-22T13:37:07.967Z,16.04
2022-12-22T13:39:34.352Z,15.92
2022-12-22T13:42:00.800Z,15.76
2022-12-22T13:44:27.081Z,15.60
2022-12-22T13:46:53.485Z,15.44
2022-12-22T13:49:36.229Z,15.33
2022-12-22T13:51:46.166Z,15.28
2022-12-22T13:54:12.936Z,15.25
2022-12-22T13:56:38.867Z,15.21
2022-12-22T13:59:05.199Z,15.13
2022-12-22T14:01:31.578Z,14.98
2022-12-22T14:04:01.514Z,14.88
2022-12-22T14:06:24.205Z,14.79
2022-12-22T14:08:50.578Z,14.69
2022-12-22T14:11:17.012Z,14.64
2022-12-22T14:13:43.343Z,14.55
2022-12-22T14:16:09.707Z,14.50
2022-12-22T14:18:36.006Z,14.41
2022-12-22T14:21:02.395Z,14.27
2022-12-22T14:23:28.764Z,14.16
2022-12-22T14:25:55.099Z,14.01
2022-12-22T14:28:21.483Z,13.92
2022-12-22T14:30:47.879Z,13.81
2022-12-22T14:33:14.239Z,13.70
2022-12-22T14:35:40.586Z,13.57
2022-12-22T14:38:06.967Z,13.44
2022-12-22T14:40:33.276Z,13.26
2022-12-22T14:42:59.622Z,13.16
2022-12-22T14:45:25.946Z,13.05
2022-12-22T14:47:52.279Z,12.93
2022-12-22T14:50:18.609Z,12.86
2022-12-22T14:52:45.004Z,13.07
2022-12-22T14:55:11.402Z,13.21
2022-12-22T14:57:37.722Z,13.34
2022-12-22T15:00:04.081Z,13.44
2022-12-22T15:02:35.136Z,13.48
2022-12-22T15:04:56.776Z,13.49
2022-12-22T15:08:04.063Z,13.47
2022-12-22T15:10:15.248Z,13.45
2022-12-22T15:12:15.872Z,13.42
2022-12-22T15:14:42.198Z,13.38
2022-12-22T15:17:08.552Z,13.33
2022-12-22T15:19:34.940Z,13.27
2022-12-22T15:22:01.260Z,13.22
2022-12-22T15:24:27.618Z,13.16
2022-12-22T15:26:53.949Z,13.11
2022-12-22T15:29:20.431Z,13.06
2022-12-22T15:31:46.739Z,12.99
2022-12-22T15:34:13.107Z,12.93
2022-12-22T15:36:39.481Z,12.86
2022-12-22T15:39:05.855Z,12.81
2022-12-22T15:41:32.179Z,12.76
2022-12-22T15:43:59.304Z,12.70
2022-12-22T15:46:24.986Z,12.65
2022-12-22T15:48:51.217Z,12.59
2022-12-22T15:51:17.601Z,12.55
2022-12-22T15:53:44.022Z,12.48
2022-12-22T15:56:17.048Z,12.41
2022-12-22T15:58:36.675Z,12.36
2022-12-22T16:01:03.171Z,12.31
2022-12-22T16:03:29.458Z,12.25
2022-12-22T16:05:55.784Z,12.20
2022-12-22T16:08:22.163Z,12.14
2022-12-22T16:10:48.484Z,12.10
2022-12-22T16:13:14.855Z,12.04
2022-12-22T16:15:41.434Z,11.99
2022-12-22T16:18:08.321Z,11.94
2022-12-22T16:20:37.826Z,11.89
2022-12-22T16:23:01.198Z,11.85
2022-12-22T16:25:27.560Z,11.80
2022-12-22T16:27:53.884Z,11.76
2022-12-22T16:30:20.237Z,11.70
2022-12-22T16:32:46.625Z,11.63
2022-12-22T16:35:12.984Z,11.60
2022-12-22T16:37:39.371Z,11.56
2022-12-22T16:40:05.738Z,11.50
2022-12-22T16:45:16.108Z,11.38
2022-12-22T16:47:42.489Z,11.32
2022-12-22T16:50:08.818Z,11.28
2022-12-22T16:52:35.198Z,11.22
2022-12-22T16:55:01.540Z,11.19
2022-12-22T16:57:27.918Z,11.05
2022-12-22T16:59:54.231Z,10.99
2022-12-22T17:02:20.744Z,10.97
2022-12-22T17:04:46.949Z,10.94
2022-12-22T17:07:13.342Z,10.92
2022-12-22T17:09:39.663Z,10.89
2022-12-22T17:12:06.074Z,10.85
2022-12-22T17:14:32.453Z,10.82
2022-12-22T17:16:59.657Z,10.77
2022-12-22T17:19:25.976Z,10.73
2022-12-22T17:21:52.365Z,10.69
2022-12-22T17:24:22.858Z,10.66
2022-12-22T17:26:45.041Z,10.63
2022-12-22T17:29:11.437Z,10.59
2022-12-22T17:31:37.924Z,10.53
2022-12-22T17:34:04.131Z,10.49
2022-12-22T17:36:30.551Z,10.43
2022-12-22T17:38:56.920Z,10.39
2022-12-22T17:41:23.738Z,10.36
2022-12-22T17:43:51.160Z,10.32
2022-12-22T17:46:17.586Z,10.27
2022-12-22T17:48:43.919Z,10.23
2022-12-22T17:51:10.248Z,10.19
2022-12-22T17:53:40.945Z,10.15
2022-12-22T17:56:08.140Z,10.10
2022-12-22T17:58:29.355Z,10.07
2022-12-22T18:00:55.713Z,10.05
2022-12-22T18:03:22.393Z,10.00
2022-12-22T18:05:48.461Z,9.96
2022-12-22T18:08:14.767Z,9.92
2022-12-22T18:10:41.113Z,9.89
2022-12-22T18:13:07.427Z,9.84
2022-12-22T18:15:33.787Z,9.80
2022-12-22T18:18:00.109Z,9.77
2022-12-22T18:20:26.481Z,9.74
2022-12-22T18:22:52.894Z,9.71
2022-12-22T18:25:19.220Z,9.67
2022-12-22T18:27:45.601Z,9.64
2022-12-22T18:30:11.994Z,9.61
2022-12-22T18:32:38.349Z,9.57
2022-12-22T18:35:04.741Z,9.53
2022-12-22T18:37:31.127Z,9.49
2022-12-22T18:39:57.525Z,9.48
2022-12-22T18:42:23.885Z,9.44
2022-12-22T18:44:50.249Z,9.41
2022-12-22T18:47:16.667Z,9.38
2022-12-22T18:49:43.017Z,9.34
2022-12-22T18:52:09.286Z,9.32
2022-12-22T18:54:35.662Z,9.28
2022-12-22T18:57:01.987Z,9.26
2022-12-22T18:59:28.337Z,9.25
2022-12-22T19:01:54.853Z,9.22
2022-12-22T19:04:21.019Z,9.21
2022-12-22T19:06:47.429Z,9.18
2022-12-22T19:09:13.761Z,9.14
2022-12-22T19:11:40.141Z,9.13
2022-12-22T19:14:06.482Z,9.11
2022-12-22T19:16:32.895Z,9.07
2022-12-22T19:18:59.232Z,9.05
2022-12-22T19:21:25.545Z,9.05
2022-12-22T19:23:52.155Z,9.01
2022-12-22T19:26:18.489Z,9.00
2022-12-22T19:28:44.826Z,9.00
2022-12-22T19:31:11.304Z,8.98
2022-12-22T19:33:37.562Z,8.97
2022-12-22T19:36:03.878Z,8.94
2022-12-22T19:38:30.290Z,8.93
2022-12-22T19:40:56.631Z,8.91
2022-12-22T19:43:22.976Z,8.89
2022-12-22T19:45:49.307Z,8.85
2022-12-22T19:48:15.627Z,8.84
2022-12-22T19:50:41.986Z,8.82
2022-12-22T19:53:08.356Z,8.78
2022-12-22T19:55:34.679Z,8.76
2022-12-22T19:58:01.063Z,8.74
2022-12-22T20:00:27.496Z,8.73
2022-12-22T20:02:53.886Z,8.71
2022-12-22T20:05:20.068Z,8.68
2022-12-22T20:07:46.453Z,8.66
2022-12-22T20:10:12.805Z,8.64
2022-12-22T20:12:39.201Z,8.62
2022-12-22T20:15:05.568Z,8.58
2022-12-22T20:17:31.923Z,8.59
2022-12-22T20:19:58.414Z,8.56
2022-12-22T20:22:24.659Z,8.55
2022-12-22T20:24:51.018Z,8.53
2022-12-22T20:27:17.338Z,8.52
2022-12-22T20:29:43.699Z,8.51
2022-12-22T20:32:10.101Z,8.50
2022-12-22T20:34:36.377Z,8.48
2022-12-22T20:37:02.717Z,8.47
2022-12-22T20:39:29.079Z,8.44
2022-12-22T20:41:55.412Z,8.43
2022-12-22T20:44:21.776Z,8.43
2022-12-22T20:46:48.153Z,8.41
2022-12-22T20:49:14.497Z,8.40
2022-12-22T20:51:40.901Z,8.38
2022-12-22T20:54:07.213Z,8.38
2022-12-22T20:56:33.593Z,8.39
2022-12-22T20:58:59.966Z,8.37
2022-12-22T21:01:26.452Z,8.37
2022-12-22T21:03:52.813Z,8.36
2022-12-22T21:06:19.050Z,8.36
2022-12-22T21:08:45.397Z,8.37
2022-12-22T21:11:11.763Z,8.36
2022-12-22T21:13:38.121Z,8.36
2022-12-22T21:16:04.529Z,8.36
2022-12-22T21:18:31.019Z,8.35
2022-12-22T21:20:57.443Z,8.38
2022-12-22T21:23:23.793Z,8.41
2022-12-22T21:25:50.171Z,8.43
2022-12-22T21:28:16.664Z,8.44
2022-12-22T21:30:43.048Z,8.44
2022-12-22T21:33:09.334Z,8.42
2022-12-22T21:35:35.700Z,8.41
2022-12-22T21:38:02.078Z,8.40
2022-12-22T21:40:28.426Z,8.41
2022-12-22T21:42:54.772Z,8.39
2022-12-22T21:45:21.107Z,8.63
2022-12-22T21:47:47.468Z,8.70
2022-12-22T21:50:13.841Z,8.67
2022-12-22T21:52:40.206Z,8.62
2022-12-22T21:55:06.596Z,8.58
2022-12-22T21:57:32.904Z,8.54
2022-12-22T21:59:59.241Z,8.50
2022-12-22T22:02:25.745Z,8.49
2022-12-22T22:04:54.984Z,8.48
2022-12-22T22:07:18.370Z,8.46
2022-12-22T22:09:44.763Z,8.45
2022-12-22T22:12:11.074Z,8.44
2022-12-22T22:14:37.467Z,8.43
2022-12-22T22:17:03.819Z,8.41
2022-12-22T22:19:30.158Z,8.41
2022-12-22T22:21:56.480Z,8.41
2022-12-22T22:24:22.918Z,8.39
2022-12-22T22:26:49.296Z,8.39
2022-12-22T22:29:15.598Z,8.38
2022-12-22T22:31:41.997Z,8.39
2022-12-22T22:34:08.281Z,8.38
2022-12-22T22:36:34.605Z,8.38
2022-12-22T22:39:01.015Z,8.38
2022-12-22T22:41:27.340Z,8.38
2022-12-22T22:43:53.713Z,8.38
2022-12-22T22:46:20.115Z,8.36
2022-12-22T22:48:46.426Z,8.35
2022-12-22T22:51:12.790Z,8.35
2022-12-22T22:53:39.179Z,8.34
2022-12-22T22:56:05.494Z,8.33
2022-12-22T22:58:31.879Z,8.34
2022-12-22T23:00:58.231Z,8.32
2022-12-22T23:03:24.737Z,8.31
2022-12-22T23:05:50.966Z,8.31
2022-12-22T23:08:17.345Z,8.30
2022-12-22T23:10:43.702Z,8.28
2022-12-22T23:13:10.127Z,8.27
2022-12-22T23:15:36.390Z,8.24
2022-12-22T23:18:02.767Z,8.24
2022-12-22T23:20:29.186Z,8.22
2022-12-22T23:22:55.544Z,8.21
2022-12-22T23:25:21.930Z,8.20
2022-12-22T23:27:48.265Z,8.19
2022-12-22T23:30:14.589Z,8.18
2022-12-22T23:32:40.952Z,8.18
2022-12-22T23:35:07.326Z,8.17
2022-12-22T23:37:33.666Z,8.14
2022-12-22T23:40:25.145Z,8.12
2022-12-22T23:42:26.383Z,8.13
2022-12-22T23:44:52.743Z,8.13
2022-12-22T23:47:19.100Z,8.10
2022-12-22T23:49:45.459Z,8.12
2022-12-22T23:52:11.811Z,8.11
2022-12-22T23:54:38.155Z,8.11
2022-12-22T23:57:04.487Z,8.11
2022-12-22T23:59:30.857Z,8.10
